Erie, Minnesota
Current Conditions -  °F | °C
As of 8:15 PM on Sunday 25 Jan 2015 (Local Time) from KTVF Reporting Station
Overcast Overcast  
Wind Chill: 11°   Ceiling: 1400
Heat Index: 23°   Visibility: 10mi
Dew Point: 18°   Wind: 13mph
Humidity: 80%   Direction: 180°S
Pressure: 29.86"   Gusts: NA
Location:  48.0638°N, 95.6851°W
Report Text: KTVF 260215Z AUTO 18011KT 10SM OVC014 M05/M08 A2986 RMK AO1
Loading
Personal Weather Stations






























Interactive Weather Map New forecast layout! Learn more

10-Day Weather Forecast

Advertisements
Track Severe Weather on mobile